Delta Virtual Airport Information Service

Victoria International Airport

ICAO: CYYJ Country: Canada
Latitude: 48.6469 Longitude: -123.425
Latest Arrival : WEN3261 (CYLW-CYYJ) Latest Departure : WEN3174 (2) (CYYJ-CYEG)


WX CaptureLIVE
Data provided by noaa.gov | Fetched at 10:47:19

METAR : CYYJ 151500Z 15007KT 20SM FEW005 BKN048 BKN070 BKN240 12/12 A3008 RMK SF1SC5AC2CI1 SF TR CI TR SLP189

TAF : CYYJ 151138Z 1512/1612 VRB03KT P6SM BKN040 TEMPO 1512/1518 BKN020 FM151800 12010KT P6SM BKN060 TEMPO 1518/1606 P6SM -SHRA BKN040 FM160600 26006KT P6SM FEW020 SCT040 RMK NXT FCST BY 151800Z


Runway Data for CYYJ
Data provided by openaviationdata.com

Runway ID Mag Var Hdg Length Elevation Surface ILS Freq ILS Id ILS Slope
2 20 22° 4992 ft 63 ft Asphalt -- -- --
9 20 86° 6973 ft 63 ft Asphalt 108.7 IKH 3
13 20 132° 5432 ft 63 ft Asphalt -- -- --
20 20 202° 4992 ft 63 ft Asphalt -- -- --
27 20 266° 6973 ft 63 ft Asphalt 108.7 IYJ 3
31 20 312° 5432 ft 63 ft Asphalt -- -- --

Victoria International Airport, Canada
Use only for reference purposes



Not for navigational purposes.